sensor_id;sensor_type;location;lat;lon;timestamp;pressure;altitude;pressure_sealevel;temperature;humidity
64064;BME280;50314;50.618;10.642;2022-09-21T00:01:32;97510.38;;;18.80;26.75
64064;BME280;50314;50.618;10.642;2022-09-21T00:03:59;97515.88;;;18.78;26.43
64064;BME280;50314;50.618;10.642;2022-09-21T00:06:27;97515.88;;;18.78;26.71
64064;BME280;50314;50.618;10.642;2022-09-21T00:08:54;97515.16;;;18.76;26.75
64064;BME280;50314;50.618;10.642;2022-09-21T00:11:23;97509.13;;;18.74;26.42
64064;BME280;50314;50.618;10.642;2022-09-21T00:13:51;97506.59;;;18.73;26.48
64064;BME280;50314;50.618;10.642;2022-09-21T00:16:17;97504.91;;;18.72;26.70
64064;BME280;50314;50.618;10.642;2022-09-21T00:18:42;97511.25;;;18.71;26.30
64064;BME280;50314;50.618;10.642;2022-09-21T00:21:11;97512.22;;;18.70;26.56
64064;BME280;50314;50.618;10.642;2022-09-21T00:23:37;97506.19;;;18.68;26.78
64064;BME280;50314;50.618;10.642;2022-09-21T00:26:07;97510.81;;;18.66;26.48
64064;BME280;50314;50.618;10.642;2022-09-21T00:28:33;97501.81;;;18.67;26.66
64064;BME280;50314;50.618;10.642;2022-09-21T00:31:03;97512.78;;;18.64;26.80
64064;BME280;50314;50.618;10.642;2022-09-21T00:33:29;97508.31;;;18.64;26.66
64064;BME280;50314;50.618;10.642;2022-09-21T00:35:55;97509.28;;;18.63;26.45
64064;BME280;50314;50.618;10.642;2022-09-21T00:38:20;97509.44;;;18.62;26.42
64064;BME280;50314;50.618;10.642;2022-09-21T00:40:45;97513.94;;;18.61;26.44
64064;BME280;50314;50.618;10.642;2022-09-21T00:43:15;97510.41;;;18.61;26.38
64064;BME280;50314;50.618;10.642;2022-09-21T00:45:42;97520.41;;;18.59;26.45
64064;BME280;50314;50.618;10.642;2022-09-21T00:48:08;97519.69;;;18.57;26.64
64064;BME280;50314;50.618;10.642;2022-09-21T00:50:34;97520.69;;;18.55;26.39
64064;BME280;50314;50.618;10.642;2022-09-21T00:53:04;97523.50;;;18.54;26.72
64064;BME280;50314;50.618;10.642;2022-09-21T00:55:33;97520.13;;;18.52;26.55
64064;BME280;50314;50.618;10.642;2022-09-21T00:58:05;97530.78;;;18.52;26.64
64064;BME280;50314;50.618;10.642;2022-09-21T01:00:34;97527.28;;;18.51;26.72
64064;BME280;50314;50.618;10.642;2022-09-21T01:03:00;97525.59;;;18.50;26.38
64064;BME280;50314;50.618;10.642;2022-09-21T01:05:27;97526.59;;;18.49;26.36
64064;BME280;50314;50.618;10.642;2022-09-21T01:07:54;97524.91;;;18.48;26.43
64064;BME280;50314;50.618;10.642;2022-09-21T01:10:21;97520.69;;;18.46;26.53
64064;BME280;50314;50.618;10.642;2022-09-21T01:15:28;97520.44;;;18.39;26.74
64064;BME280;50314;50.618;10.642;2022-09-21T01:34:52;97513.16;;;18.22;26.93
64064;BME280;50314;50.618;10.642;2022-09-21T01:37:25;97519.31;;;18.22;26.88
64064;BME280;50314;50.618;10.642;2022-09-21T01:39:55;97525.38;;;18.24;26.79
64064;BME280;50314;50.618;10.642;2022-09-21T01:42:25;97523.53;;;18.25;26.66
64064;BME280;50314;50.618;10.642;2022-09-21T01:44:52;97524.53;;;18.24;26.61
64064;BME280;50314;50.618;10.642;2022-09-21T01:47:20;97532.66;;;18.22;26.61
64064;BME280;50314;50.618;10.642;2022-09-21T01:49:50;97531.09;;;18.20;26.91
64064;BME280;50314;50.618;10.642;2022-09-21T01:54:55;97537.59;;;18.17;26.87
64064;BME280;50314;50.618;10.642;2022-09-21T01:57:40;97522.00;;;18.13;26.65
64064;BME280;50314;50.618;10.642;2022-09-21T02:00:08;97534.19;;;18.15;26.88
64064;BME280;50314;50.618;10.642;2022-09-21T02:05:12;97533.50;;;18.13;26.62
64064;BME280;50314;50.618;10.642;2022-09-21T02:07:40;97524.66;;;18.13;26.74
64064;BME280;50314;50.618;10.642;2022-09-21T02:10:08;97530.13;;;18.11;26.85
64064;BME280;50314;50.618;10.642;2022-09-21T02:12:35;97529.41;;;18.09;26.55
64064;BME280;50314;50.618;10.642;2022-09-21T02:15:02;97526.72;;;18.09;26.89
64064;BME280;50314;50.618;10.642;2022-09-21T02:20:12;97533.50;;;18.03;27.01
64064;BME280;50314;50.618;10.642;2022-09-21T02:25:37;97530.53;;;17.97;26.88
64064;BME280;50314;50.618;10.642;2022-09-21T02:28:14;97525.91;;;17.99;26.91
64064;BME280;50314;50.618;10.642;2022-09-21T02:30:49;97528.56;;;17.99;26.84
64064;BME280;50314;50.618;10.642;2022-09-21T02:33:31;97523.50;;;17.96;26.86
64064;BME280;50314;50.618;10.642;2022-09-21T02:36:09;97524.50;;;17.95;26.79
64064;BME280;50314;50.618;10.642;2022-09-21T02:38:52;97519.31;;;17.93;26.83
64064;BME280;50314;50.618;10.642;2022-09-21T02:44:02;97518.03;;;17.88;26.88
64064;BME280;50314;50.618;10.642;2022-09-21T02:47:20;97522.81;;;17.84;26.66
64064;BME280;50314;50.618;10.642;2022-09-21T02:49:48;97524.38;;;17.87;26.59
64064;BME280;50314;50.618;10.642;2022-09-21T02:52:16;97521.69;;;17.87;26.85
64064;BME280;50314;50.618;10.642;2022-09-21T02:54:44;97524.38;;;17.87;26.58
64064;BME280;50314;50.618;10.642;2022-09-21T02:57:14;97535.03;;;17.87;26.61
64064;BME280;50314;50.618;10.642;2022-09-21T02:59:41;97536.81;;;17.86;26.60
64064;BME280;50314;50.618;10.642;2022-09-21T03:02:08;97532.47;;;17.85;26.90
64064;BME280;50314;50.618;10.642;2022-09-21T03:04:34;97532.63;;;17.83;26.47
64064;BME280;50314;50.618;10.642;2022-09-21T03:07:01;97534.31;;;17.84;26.70
64064;BME280;50314;50.618;10.642;2022-09-21T03:09:26;97533.59;;;17.82;26.95
64064;BME280;50314;50.618;10.642;2022-09-21T03:11:51;97533.59;;;17.82;26.86
64064;BME280;50314;50.618;10.642;2022-09-21T03:14:17;97537.25;;;17.81;26.81
64064;BME280;50314;50.618;10.642;2022-09-21T03:16:43;97531.22;;;17.79;26.77
64064;BME280;50314;50.618;10.642;2022-09-21T03:19:09;97528.53;;;17.79;26.58
64064;BME280;50314;50.618;10.642;2022-09-21T03:21:36;97528.53;;;17.79;26.48
64064;BME280;50314;50.618;10.642;2022-09-21T03:24:01;97539.19;;;17.79;26.77
64064;BME280;50314;50.618;10.642;2022-09-21T03:26:27;97533.88;;;17.79;26.52
64064;BME280;50314;50.618;10.642;2022-09-21T03:28:52;97539.19;;;17.79;26.86
64064;BME280;50314;50.618;10.642;2022-09-21T03:31:19;97541.19;;;17.77;26.92
64064;BME280;50314;50.618;10.642;2022-09-21T03:33:44;97540.34;;;17.77;26.76
64064;BME280;50314;50.618;10.642;2022-09-21T03:36:10;97542.16;;;17.76;26.86
64064;BME280;50314;50.618;10.642;2022-09-21T03:38:36;97545.78;;;17.75;26.54
64064;BME280;50314;50.618;10.642;2022-09-21T03:41:02;97539.78;;;17.73;26.50
64064;BME280;50314;50.618;10.642;2022-09-21T03:43:28;97541.56;;;17.73;26.61
64064;BME280;50314;50.618;10.642;2022-09-21T03:45:53;97542.56;;;17.72;26.80
64064;BME280;50314;50.618;10.642;2022-09-21T03:48:19;97547.06;;;17.71;26.73
64064;BME280;50314;50.618;10.642;2022-09-21T03:50:45;97540.88;;;17.71;26.82
64064;BME280;50314;50.618;10.642;2022-09-21T03:53:11;97545.38;;;17.70;26.79
64064;BME280;50314;50.618;10.642;2022-09-21T03:55:37;97542.72;;;17.70;26.81
64064;BME280;50314;50.618;10.642;2022-09-21T03:58:03;97540.16;;;17.69;26.69
64064;BME280;50314;50.618;10.642;2022-09-21T04:00:29;97535.84;;;17.68;26.54
64064;BME280;50314;50.618;10.642;2022-09-21T04:02:55;97538.63;;;17.66;26.60
64064;BME280;50314;50.618;10.642;2022-09-21T04:05:21;97542.28;;;17.65;26.68
64064;BME280;50314;50.618;10.642;2022-09-21T04:07:46;97547.59;;;17.65;26.61
64064;BME280;50314;50.618;10.642;2022-09-21T04:10:15;97549.56;;;17.63;26.38
64064;BME280;50314;50.618;10.642;2022-09-21T04:12:42;97553.19;;;17.62;26.77
64064;BME280;50314;50.618;10.642;2022-09-21T04:15:09;97551.22;;;17.54;26.73
64064;BME280;50314;50.618;10.642;2022-09-21T04:17:35;97549.13;;;17.58;26.69
64064;BME280;50314;50.618;10.642;2022-09-21T04:20:01;97549.13;;;17.58;26.47
64064;BME280;50314;50.618;10.642;2022-09-21T04:22:26;97549.97;;;17.58;26.64
64064;BME280;50314;50.618;10.642;2022-09-21T04:24:51;97552.91;;;17.55;26.46
64064;BME280;50314;50.618;10.642;2022-09-21T04:27:17;97542.97;;;17.57;26.67
64064;BME280;50314;50.618;10.642;2022-09-21T04:29:43;97552.78;;;17.57;26.45
64064;BME280;50314;50.618;10.642;2022-09-21T04:32:09;97546.75;;;17.55;26.72
64064;BME280;50314;50.618;10.642;2022-09-21T04:34:35;97555.72;;;17.54;26.51
64064;BME280;50314;50.618;10.642;2022-09-21T04:37:06;97551.22;;;17.54;26.50
64064;BME280;50314;50.618;10.642;2022-09-21T04:39:33;97552.22;;;17.53;26.78
64064;BME280;50314;50.618;10.642;2022-09-21T04:41:58;97558.50;;;17.52;26.66
64064;BME280;50314;50.618;10.642;2022-09-21T04:44:23;97549.66;;;17.52;26.80
64064;BME280;50314;50.618;10.642;2022-09-21T04:46:49;97555.00;;;17.52;26.82
64064;BME280;50314;50.618;10.642;2022-09-21T04:49:14;97558.66;;;17.51;26.76
64064;BME280;50314;50.618;10.642;2022-09-21T04:51:40;97556.09;;;17.49;26.88
64064;BME280;50314;50.618;10.642;2022-09-21T04:54:06;97558.78;;;17.49;26.67
64064;BME280;50314;50.618;10.642;2022-09-21T04:56:32;97560.59;;;17.49;26.69
64064;BME280;50314;50.618;10.642;2022-09-21T04:58:57;97565.09;;;17.48;26.79
64064;BME280;50314;50.618;10.642;2022-09-21T05:01:23;97563.50;;;17.46;26.77
64064;BME280;50314;50.618;10.642;2022-09-21T05:03:48;97566.16;;;17.46;26.59
64064;BME280;50314;50.618;10.642;2022-09-21T05:06:14;97567.03;;;17.46;26.76
64064;BME280;50314;50.618;10.642;2022-09-21T05:08:39;97560.16;;;17.44;26.97
64064;BME280;50314;50.618;10.642;2022-09-21T05:11:24;97574.44;;;17.43;26.70
64064;BME280;50314;50.618;10.642;2022-09-21T05:13:49;97578.06;;;17.42;26.82
64064;BME280;50314;50.618;10.642;2022-09-21T05:16:16;97571.06;;;17.41;26.54
64064;BME280;50314;50.618;10.642;2022-09-21T05:18:42;97583.38;;;17.42;26.60
64064;BME280;50314;50.618;10.642;2022-09-21T05:21:08;97575.56;;;17.40;26.57
64064;BME280;50314;50.618;10.642;2022-09-21T05:23:35;97576.38;;;17.41;26.71
64064;BME280;50314;50.618;10.642;2022-09-21T05:26:00;97580.88;;;17.40;26.75
64064;BME280;50314;50.618;10.642;2022-09-21T05:28:26;97579.16;;;17.39;26.65
64064;BME280;50314;50.618;10.642;2022-09-21T05:34:06;97578.03;;;17.32;26.70
64064;BME280;50314;50.618;10.642;2022-09-21T05:36:43;97585.91;;;17.33;26.65
64064;BME280;50314;50.618;10.642;2022-09-21T05:39:11;97588.41;;;17.35;26.71
64064;BME280;50314;50.618;10.642;2022-09-21T05:41:37;97584.06;;;17.34;26.43
64064;BME280;50314;50.618;10.642;2022-09-21T05:44:03;97584.78;;;17.36;26.57
64064;BME280;50314;50.618;10.642;2022-09-21T05:46:36;97590.38;;;17.33;26.62
64064;BME280;50314;50.618;10.642;2022-09-21T05:49:08;97591.22;;;17.33;26.70
64064;BME280;50314;50.618;10.642;2022-09-21T05:59:41;97602.41;;;17.27;26.84
64064;BME280;50314;50.618;10.642;2022-09-21T06:02:22;97604.66;;;17.32;26.65
64064;BME280;50314;50.618;10.642;2022-09-21T06:04:51;97604.53;;;17.33;26.57
64064;BME280;50314;50.618;10.642;2022-09-21T06:07:18;97601.88;;;17.33;26.48
64064;BME280;50314;50.618;10.642;2022-09-21T06:09:44;97601.72;;;17.35;26.49
64064;BME280;50314;50.618;10.642;2022-09-21T06:12:09;97599.06;;;17.35;26.58
64064;BME280;50314;50.618;10.642;2022-09-21T06:14:36;97599.91;;;17.35;26.48
64064;BME280;50314;50.618;10.642;2022-09-21T06:17:01;97607.88;;;17.35;26.62
64064;BME280;50314;50.618;10.642;2022-09-21T06:19:27;97607.88;;;17.35;26.71
64064;BME280;50314;50.618;10.642;2022-09-21T06:21:52;97607.78;;;17.37;26.58
64064;BME280;50314;50.618;10.642;2022-09-21T06:24:18;97608.47;;;17.39;26.68
64064;BME280;50314;50.618;10.642;2022-09-21T06:26:43;97606.50;;;17.41;26.58
64064;BME280;50314;50.618;10.642;2022-09-21T06:29:08;97604.56;;;17.43;26.40
64064;BME280;50314;50.618;10.642;2022-09-21T06:31:34;97606.09;;;17.46;26.47
64064;BME280;50314;50.618;10.642;2022-09-21T06:34:00;97613.75;;;17.50;26.36
64064;BME280;50314;50.618;10.642;2022-09-21T06:36:25;97611.66;;;17.54;26.35
64064;BME280;50314;50.618;10.642;2022-09-21T06:38:51;97609.56;;;17.57;26.31
64064;BME280;50314;50.618;10.642;2022-09-21T06:41:16;97600.19;;;17.63;26.34
64064;BME280;50314;50.618;10.642;2022-09-21T06:43:42;97604.94;;;17.69;26.33
64064;BME280;50314;50.618;10.642;2022-09-21T06:46:07;97607.22;;;17.74;26.34
64064;BME280;50314;50.618;10.642;2022-09-21T06:48:33;97609.19;;;17.81;26.16
64064;BME280;50314;50.618;10.642;2022-09-21T06:51:01;97604.31;;;17.87;26.42
64064;BME280;50314;50.618;10.642;2022-09-21T06:53:28;97610.78;;;17.94;26.48
64064;BME280;50314;50.618;10.642;2022-09-21T06:55:59;97617.50;;;17.98;26.53
64064;BME280;50314;50.618;10.642;2022-09-21T06:58:25;97614.00;;;18.07;26.20
64064;BME280;50314;50.618;10.642;2022-09-21T07:00:50;97612.63;;;18.13;26.27
64064;BME280;50314;50.618;10.642;2022-09-21T07:03:15;97617.97;;;18.22;26.19
64064;BME280;50314;50.618;10.642;2022-09-21T07:05:43;97609.41;;;18.28;25.97
64064;BME280;50314;50.618;10.642;2022-09-21T07:08:09;97617.53;;;18.37;25.94
64064;BME280;50314;50.618;10.642;2022-09-21T07:10:34;97620.38;;;18.45;26.05
64064;BME280;50314;50.618;10.642;2022-09-21T07:13:04;97622.47;;;18.51;26.36
64064;BME280;50314;50.618;10.642;2022-09-21T07:15:30;97618.94;;;18.60;26.01
64064;BME280;50314;50.618;10.642;2022-09-21T07:17:56;97627.09;;;18.68;26.28
64064;BME280;50314;50.618;10.642;2022-09-21T07:20:21;97625.41;;;18.77;25.92
64064;BME280;50314;50.618;10.642;2022-09-21T07:22:47;97622.72;;;18.87;26.13
64064;BME280;50314;50.618;10.642;2022-09-21T07:25:13;97620.22;;;18.95;25.92
64064;BME280;50314;50.618;10.642;2022-09-21T07:27:38;97624.66;;;19.04;25.78
64064;BME280;50314;50.618;10.642;2022-09-21T07:30:05;97617.75;;;19.11;25.92
64064;BME280;50314;50.618;10.642;2022-09-21T07:32:31;97621.41;;;19.10;25.18
64064;BME280;50314;50.618;10.642;2022-09-21T07:34:56;97625.59;;;19.22;25.61
64064;BME280;50314;50.618;10.642;2022-09-21T07:37:23;97623.03;;;19.31;25.34
64064;BME280;50314;50.618;10.642;2022-09-21T07:39:50;97619.94;;;19.35;25.16
64064;BME280;50314;50.618;10.642;2022-09-21T07:42:16;97618.78;;;19.38;25.16
64064;BME280;50314;50.618;10.642;2022-09-21T07:44:42;97621.34;;;19.39;25.27
64064;BME280;50314;50.618;10.642;2022-09-21T07:47:08;97611.88;;;19.45;25.48
64064;BME280;50314;50.618;10.642;2022-09-21T07:49:34;97621.44;;;19.47;24.95
64064;BME280;50314;50.618;10.642;2022-09-21T07:51:59;97616.66;;;19.51;25.04
64064;BME280;50314;50.618;10.642;2022-09-21T07:54:24;97611.19;;;19.53;25.26
64064;BME280;50314;50.618;10.642;2022-09-21T07:56:50;97608.34;;;19.54;25.28
64064;BME280;50314;50.618;10.642;2022-09-21T07:59:33;97613.56;;;19.56;25.75
64064;BME280;50314;50.618;10.642;2022-09-21T08:01:59;97616.06;;;19.57;25.73
64064;BME280;50314;50.618;10.642;2022-09-21T08:04:25;97613.38;;;19.57;25.74
64064;BME280;50314;50.618;10.642;2022-09-21T08:06:50;97609.72;;;19.58;25.30
64064;BME280;50314;50.618;10.642;2022-09-21T08:09:16;97611.13;;;19.62;25.23
64064;BME280;50314;50.618;10.642;2022-09-21T08:11:41;97612.34;;;19.68;25.27
64064;BME280;50314;50.618;10.642;2022-09-21T08:14:09;97616.56;;;19.70;25.57
64064;BME280;50314;50.618;10.642;2022-09-21T08:16:36;97618.09;;;19.73;25.21
64064;BME280;50314;50.618;10.642;2022-09-21T08:19:03;97622.41;;;19.84;25.42
64064;BME280;50314;50.618;10.642;2022-09-21T08:21:28;97623.75;;;20.15;24.93
64064;BME280;50314;50.618;10.642;2022-09-21T08:23:54;97624.28;;;20.73;24.85
64064;BME280;50314;50.618;10.642;2022-09-21T08:26:19;97622.19;;;21.28;24.18
64064;BME280;50314;50.618;10.642;2022-09-21T08:28:46;97625.63;;;21.81;23.70
64064;BME280;50314;50.618;10.642;2022-09-21T08:31:17;97621.94;;;22.33;23.35
64064;BME280;50314;50.618;10.642;2022-09-21T08:33:47;97621.09;;;22.81;22.48
64064;BME280;50314;50.618;10.642;2022-09-21T08:36:14;97626.94;;;23.26;22.18
64064;BME280;50314;50.618;10.642;2022-09-21T08:38:39;97616.91;;;23.67;21.87
64064;BME280;50314;50.618;10.642;2022-09-21T08:41:24;97618.09;;;24.04;21.15
64064;BME280;50314;50.618;10.642;2022-09-21T08:43:54;97620.44;;;24.38;20.57
64064;BME280;50314;50.618;10.642;2022-09-21T08:46:24;97623.13;;;24.61;20.87
64064;BME280;50314;50.618;10.642;2022-09-21T08:49:00;97620.16;;;24.56;20.56
64064;BME280;50314;50.618;10.642;2022-09-21T08:51:31;97616.50;;;24.49;20.13
64064;BME280;50314;50.618;10.642;2022-09-21T08:54:00;97629.63;;;24.44;20.67
64064;BME280;50314;50.618;10.642;2022-09-21T08:56:27;97626.25;;;24.50;21.01
64064;BME280;50314;50.618;10.642;2022-09-21T08:58:53;97625.66;;;24.63;20.65
64064;BME280;50314;50.618;10.642;2022-09-21T09:17:48;97618.19;;;25.70;19.71
64064;BME280;50314;50.618;10.642;2022-09-21T09:23:24;97618.50;;;25.96;19.08
64064;BME280;50314;50.618;10.642;2022-09-21T09:25:53;97625.66;;;26.19;19.36
64064;BME280;50314;50.618;10.642;2022-09-21T09:28:41;97621.06;;;26.19;19.11
64064;BME280;50314;50.618;10.642;2022-09-21T09:31:18;97614.53;;;26.29;19.06
64064;BME280;50314;50.618;10.642;2022-09-21T09:36:44;97615.06;;;26.82;18.68
64064;BME280;50314;50.618;10.642;2022-09-21T09:39:14;97619.84;;;27.08;18.76
64064;BME280;50314;50.618;10.642;2022-09-21T09:42:12;97617.28;;;27.28;18.16
64064;BME280;50314;50.618;10.642;2022-09-21T09:47:43;97605.72;;;27.82;17.62
64064;BME280;50314;50.618;10.642;2022-09-21T09:50:29;97603.06;;;27.95;17.80
64064;BME280;50314;50.618;10.642;2022-09-21T09:53:03;97610.25;;;27.68;17.63
64064;BME280;50314;50.618;10.642;2022-09-21T09:55:36;97608.72;;;27.52;18.21
64064;BME280;50314;50.618;10.642;2022-09-21T09:58:03;97606.69;;;27.61;18.35
64064;BME280;50314;50.618;10.642;2022-09-21T10:00:29;97598.25;;;27.84;18.35
64064;BME280;50314;50.618;10.642;2022-09-21T10:02:56;97607.56;;;28.16;17.76
64064;BME280;50314;50.618;10.642;2022-09-21T10:05:34;97603.81;;;28.17;18.10
64064;BME280;50314;50.618;10.642;2022-09-21T10:08:00;97599.25;;;28.31;17.52
64064;BME280;50314;50.618;10.642;2022-09-21T10:10:39;97602.56;;;28.20;15.78
64064;BME280;50314;50.618;10.642;2022-09-21T10:15:58;97603.63;;;28.39;15.30
64064;BME280;50314;50.618;10.642;2022-09-21T10:21:05;97602.84;;;28.85;14.48
64064;BME280;50314;50.618;10.642;2022-09-21T10:23:32;97602.25;;;28.96;14.50
64064;BME280;50314;50.618;10.642;2022-09-21T10:26:01;97608.06;;;28.73;14.28
64064;BME280;50314;50.618;10.642;2022-09-21T10:28:28;97604.25;;;28.34;14.63
64064;BME280;50314;50.618;10.642;2022-09-21T10:31:09;97612.81;;;27.83;14.71
64064;BME280;50314;50.618;10.642;2022-09-21T10:34:27;97606.53;;;27.41;14.72
64064;BME280;50314;50.618;10.642;2022-09-21T10:36:34;97604.09;;;27.11;15.32
64064;BME280;50314;50.618;10.642;2022-09-21T10:39:32;97606.34;;;26.86;16.13
64064;BME280;50314;50.618;10.642;2022-09-21T10:42:17;97604.91;;;26.62;16.43
64064;BME280;50314;50.618;10.642;2022-09-21T10:44:49;97604.53;;;26.44;16.50
64064;BME280;50314;50.618;10.642;2022-09-21T10:47:38;97612.88;;;26.28;16.92
64064;BME280;50314;50.618;10.642;2022-09-21T10:50:04;97606.44;;;26.07;17.33
64064;BME280;50314;50.618;10.642;2022-09-21T10:52:37;97600.78;;;25.87;17.65
64064;BME280;50314;50.618;10.642;2022-09-21T10:55:05;97601.44;;;25.74;17.81
64064;BME280;50314;50.618;10.642;2022-09-21T10:57:33;97594.22;;;25.60;18.09
64064;BME280;50314;50.618;10.642;2022-09-21T11:00:25;97600.97;;;25.41;18.13
64064;BME280;50314;50.618;10.642;2022-09-21T11:02:57;97602.94;;;25.33;18.60
64064;BME280;50314;50.618;10.642;2022-09-21T11:05:35;97598.34;;;25.18;18.46
64064;BME280;50314;50.618;10.642;2022-09-21T11:08:13;97598.09;;;25.13;18.77
64064;BME280;50314;50.618;10.642;2022-09-21T11:13:35;97599.31;;;24.88;19.03
64064;BME280;50314;50.618;10.642;2022-09-21T11:18:55;97594.63;;;24.67;19.64
64064;BME280;50314;50.618;10.642;2022-09-21T11:26:43;97608.09;;;24.44;19.79
64064;BME280;50314;50.618;10.642;2022-09-21T11:29:32;97602.78;;;24.35;19.78
64064;BME280;50314;50.618;10.642;2022-09-21T11:35:21;97595.75;;;24.26;20.39
64064;BME280;50314;50.618;10.642;2022-09-21T11:37:53;97594.63;;;24.21;20.45
64064;BME280;50314;50.618;10.642;2022-09-21T11:46:41;97593.09;;;23.95;20.88
64064;BME280;50314;50.618;10.642;2022-09-21T12:10:43;97574.34;;;23.48;20.47
64064;BME280;50314;50.618;10.642;2022-09-21T12:13:35;97570.81;;;23.47;20.63
64064;BME280;50314;50.618;10.642;2022-09-21T12:18:47;97571.66;;;23.48;21.19
64064;BME280;50314;50.618;10.642;2022-09-21T12:21:26;97562.91;;;23.45;20.79
64064;BME280;50314;50.618;10.642;2022-09-21T12:23:53;97570.63;;;23.49;20.83
64064;BME280;50314;50.618;10.642;2022-09-21T12:26:25;97565.44;;;23.47;21.47
64064;BME280;50314;50.618;10.642;2022-09-21T12:29:06;97571.31;;;23.42;21.12
64064;BME280;50314;50.618;10.642;2022-09-21T12:32:00;97575.00;;;23.41;21.30
64064;BME280;50314;50.618;10.642;2022-09-21T12:34:34;97568.63;;;23.42;21.07
64064;BME280;50314;50.618;10.642;2022-09-21T12:37:35;97565.94;;;23.42;21.17
64064;BME280;50314;50.618;10.642;2022-09-21T12:40:14;97565.59;;;23.45;21.05
64064;BME280;50314;50.618;10.642;2022-09-21T12:42:48;97572.63;;;23.47;21.16
64064;BME280;50314;50.618;10.642;2022-09-21T12:45:24;97565.78;;;23.44;21.33
64064;BME280;50314;50.618;10.642;2022-09-21T12:48:05;97561.88;;;23.47;21.17
64064;BME280;50314;50.618;10.642;2022-09-21T12:51:18;97559.72;;;23.42;21.47
64064;BME280;50314;50.618;10.642;2022-09-21T12:53:49;97559.53;;;23.52;20.45
64064;BME280;50314;50.618;10.642;2022-09-21T12:56:33;97553.78;;;23.55;19.67
64064;BME280;50314;50.618;10.642;2022-09-21T13:01:44;97556.78;;;23.60;19.14
64064;BME280;50314;50.618;10.642;2022-09-21T13:07:15;97549.38;;;23.62;18.83
64064;BME280;50314;50.618;10.642;2022-09-21T13:09:45;97544.63;;;23.72;19.18
64064;BME280;50314;50.618;10.642;2022-09-21T13:12:27;97539.59;;;23.69;18.62
64064;BME280;50314;50.618;10.642;2022-09-21T13:15:10;97547.63;;;23.77;18.70
64064;BME280;50314;50.618;10.642;2022-09-21T13:17:37;97541.88;;;23.80;19.21
64064;BME280;50314;50.618;10.642;2022-09-21T13:20:13;97545.78;;;23.78;18.45
64064;BME280;50314;50.618;10.642;2022-09-21T13:22:40;97544.28;;;23.75;18.93
64064;BME280;50314;50.618;10.642;2022-09-21T13:30:46;97535.81;;;23.55;18.58
64064;BME280;50314;50.618;10.642;2022-09-21T13:44:02;97531.75;;;23.20;18.44
64064;BME280;50314;50.618;10.642;2022-09-21T13:51:26;97525.22;;;23.14;18.84
64064;BME280;50314;50.618;10.642;2022-09-21T13:53:57;97519.34;;;23.11;18.51
64064;BME280;50314;50.618;10.642;2022-09-21T13:56:26;97519.69;;;23.08;18.40
64064;BME280;50314;50.618;10.642;2022-09-21T13:58:54;97521.56;;;22.99;18.92
64064;BME280;50314;50.618;10.642;2022-09-21T14:01:31;97510.16;;;22.97;18.52
64064;BME280;50314;50.618;10.642;2022-09-21T14:04:00;97519.06;;;22.97;18.87
64064;BME280;50314;50.618;10.642;2022-09-21T14:06:33;97523.09;;;22.93;19.76
64064;BME280;50314;50.618;10.642;2022-09-21T14:09:06;97505.28;;;22.92;19.71
64064;BME280;50314;50.618;10.642;2022-09-21T14:11:38;97518.06;;;22.90;20.08
64064;BME280;50314;50.618;10.642;2022-09-21T14:27:12;97512.38;;;22.77;20.49
64064;BME280;50314;50.618;10.642;2022-09-21T14:29:55;97512.38;;;22.77;20.57
64064;BME280;50314;50.618;10.642;2022-09-21T14:32:27;97508.00;;;22.76;20.92
64064;BME280;50314;50.618;10.642;2022-09-21T14:34:57;97504.66;;;22.74;20.68
64064;BME280;50314;50.618;10.642;2022-09-21T14:37:36;97505.16;;;22.69;20.96
64064;BME280;50314;50.618;10.642;2022-09-21T14:40:24;97505.50;;;22.66;20.91
64064;BME280;50314;50.618;10.642;2022-09-21T14:42:56;97497.28;;;22.68;21.07
64064;BME280;50314;50.618;10.642;2022-09-21T14:45:54;97498.44;;;22.65;21.26
64064;BME280;50314;50.618;10.642;2022-09-21T15:04:28;97498.34;;;22.42;21.71
64064;BME280;50314;50.618;10.642;2022-09-21T15:10:19;97484.75;;;22.36;21.72
64064;BME280;50314;50.618;10.642;2022-09-21T15:15:50;97480.19;;;22.28;22.37
64064;BME280;50314;50.618;10.642;2022-09-21T15:18:21;97482.41;;;22.33;22.01
64064;BME280;50314;50.618;10.642;2022-09-21T15:21:31;97478.84;;;22.24;22.33
64064;BME280;50314;50.618;10.642;2022-09-21T15:23:57;97482.72;;;22.29;21.98
64064;BME280;50314;50.618;10.642;2022-09-21T15:26:29;97479.69;;;22.24;22.36
64064;BME280;50314;50.618;10.642;2022-09-21T15:28:58;97481.38;;;22.25;22.08
64064;BME280;50314;50.618;10.642;2022-09-21T15:31:31;97482.88;;;22.20;22.46
64064;BME280;50314;50.618;10.642;2022-09-21T15:33:57;97477.34;;;22.21;22.19
64064;BME280;50314;50.618;10.642;2022-09-21T15:36:25;97489.25;;;22.19;22.25
64064;BME280;50314;50.618;10.642;2022-09-21T15:38:52;97481.56;;;22.16;22.32
64064;BME280;50314;50.618;10.642;2022-09-21T15:44:21;97489.56;;;22.08;22.57
64064;BME280;50314;50.618;10.642;2022-09-21T15:46:50;97487.91;;;22.07;22.49
64064;BME280;50314;50.618;10.642;2022-09-21T15:49:19;97487.91;;;22.07;22.72
64064;BME280;50314;50.618;10.642;2022-09-21T15:51:48;97490.78;;;22.05;22.53
64064;BME280;50314;50.618;10.642;2022-09-21T15:56:49;97486.72;;;22.01;22.97
64064;BME280;50314;50.618;10.642;2022-09-21T15:59:16;97486.91;;;21.99;22.65
64064;BME280;50314;50.618;10.642;2022-09-21T16:01:50;97487.25;;;21.96;23.04
64064;BME280;50314;50.618;10.642;2022-09-21T16:04:24;97492.09;;;21.93;23.04
64064;BME280;50314;50.618;10.642;2022-09-21T16:07:05;97482.03;;;21.87;23.31
64064;BME280;50314;50.618;10.642;2022-09-21T16:09:37;97482.38;;;21.84;23.12
64064;BME280;50314;50.618;10.642;2022-09-21T16:12:41;97480.69;;;21.83;23.30
64064;BME280;50314;50.618;10.642;2022-09-21T16:15:23;97480.84;;;21.81;23.21